21:37
Airports
History
Links
Donate
Help keep this website running!
PayPal
Bitcoin
This page is community maintained. The information is intended for PC simulator navigation or reference.
Always use approved charts for navigation.
SDIN
Clube Ceu
Clube Ceu (SDIN)
Rio de Janeiro, Rio de Janeiro, Brazil (22793)
4
Lat/Lng:22° 59' 51" S / 43° 24' 5" W
-22.9975 / -43.401389
Elevation:3'ft / 1mMSL
ID / ICAO:SDIN
Runways:1
Longest:(07-25) 402.3m / 1,320ft Grass
Distance To
Airport ID:
Nearby WeatherUpdated 08-16-17 20:00 GMT
Nearby weather at SBJR, Jacarepagua located 2.1 nautical miles from SDIN
Altimeter: 30.06
Visibility: 1.9 statute miles
Wind: 1 knots (220°)
Temp: 20°c 68°f
Humidity: 94.0%

METAR: SBJR 162000Z 22001KT 3000 -RA BR BKN005 OVC020 20/19 Q1018

(Powered by phpweather)
Runway 07 / 25
Dimensions:402.3 x 29.9m 1320' x 98'ft
Surface:Grass
Runway 07 [A]Runway 25 [B]
Heading:045°TH 225°TH
Lat:
Lng:
22° 59' 55.61"S
43° 24' 10.12"W
22° 59' 46.39"S
43° 23' 59.88"W
User Notes and Comments
Google Map
Nearby Airports
(C) Jacarepagua 2.1 NM
SBJR (WX) ENE 71°
(C) Campo Delio Jardim de Mattos 8.5 NM
SBAF (WX) N
(C) Santos-Dumont 16.3 NM
SBRJ (WX) ENE 68°
(C) Galeao Antonio Carlos Jombim 16.5 NM
SBGL (WX) NE 38°
(U) AEROCLUBE NOVA IGUACU 17.8 NM
SDNY NNW 347°
(C) SANTA CRUZ 20.7 NM
SBSC (WX) WNW 282°
4 Marambaia 30.8 NM
SDMR W 261°
VFR Chart
Flight Planning at SkyVector.com